Airfield :
LOGIN :

Register | Disclaimer

   EN    FR    IT 

 










Legend :    VFR   Marginal VFR   IFR   Intensive IFR   Very Intensive IFR
Visi :
Ceiling :
>= 8 km
>= 3000ft
5 to 8 km
1000 to 3000 ft
1500m to 5 km
500 to 1000 ft
800 to 1500m
200 to 500 ft
< 800m
< 200 ft
Symbols :   Thunderstorms  Fog  Heavy snow  Heavy precipitations  Wind > 20 kt
SIGMETs :     Misc.  Thunderstorms  Icing  Turbulence  Mountain Waves  Volcanic Ashes







- Airport Elevation : 121 ft
- IATA code : HUY
- Download approach charts


EGNJ - Humberside

CURRENT METAR :
  • 181720Z 14011KT CAVOK 03/00 Q1013

EXPIRED METARs :
  • 181650Z 15011KT CAVOK 03/00 Q1013
  • 181620Z 15010KT CAVOK 03/M00 Q1013
  • 181550Z 15011KT 9999 FEW045 03/M00 Q1013
  • 181520Z 15012KT 9999 SCT047 04/M01 Q1014
  • 181450Z 16013KT CAVOK 04/M00 Q1014

TAF TAF EGNJ
Valid from the 18 at 18:00 until the 19 at 03:00 UTC


181700Z 1818/1903 15011KT CAVOK
BECMG 1818/1821 BKN020
TEMPO 1819/1903 7000 -RA BKN012
PROB30
TEMPO 1819/1903 3500 RASN BKN005
ATIS : +44 1652 682 020
No reported NOTAMs for that airfield.



MET'MAP, your aeronautical weather chart ! - Copyright ORBIFLY December 2007 - Disclaimer

ORBIFLY MET'MAP TEAM :

Programming & Development : Alexandra Zaïnal
Concept & Development : Baudouin d'Aumeries
Co-Development & Prog : Marc-Olivier Méhu
Technical & hardware support : Manuel Goepfert

Contact : metmap@orbifly.com




SOURCES & CREDITS :

   NOAA